sensor_id;sensor_type;location;lat;lon;timestamp;P1;durP1;ratioP1;P2;durP2;ratioP2
10418;SDS011;5256;48.728;9.140;2023-09-08T00:01:37;0.30;;;0.30;;
10418;SDS011;5256;48.728;9.140;2023-09-08T00:04:02;0.30;;;0.30;;
10418;SDS011;5256;48.728;9.140;2023-09-08T00:06:29;0.23;;;0.23;;
10418;SDS011;5256;48.728;9.140;2023-09-08T00:08:54;0.30;;;0.30;;
10418;SDS011;5256;48.728;9.140;2023-09-08T00:11:20;0.40;;;0.40;;
10418;SDS011;5256;48.728;9.140;2023-09-08T00:13:45;0.40;;;0.40;;
10418;SDS011;5256;48.728;9.140;2023-09-08T00:16:11;0.57;;;0.57;;
10418;SDS011;5256;48.728;9.140;2023-09-08T00:18:36;0.30;;;0.30;;
10418;SDS011;5256;48.728;9.140;2023-09-08T00:21:02;0.37;;;0.37;;
10418;SDS011;5256;48.728;9.140;2023-09-08T00:23:27;0.30;;;0.30;;
10418;SDS011;5256;48.728;9.140;2023-09-08T00:25:53;0.40;;;0.40;;
10418;SDS011;5256;48.728;9.140;2023-09-08T00:28:19;0.30;;;0.30;;
10418;SDS011;5256;48.728;9.140;2023-09-08T00:30:44;0.30;;;0.30;;
10418;SDS011;5256;48.728;9.140;2023-09-08T00:33:10;0.30;;;0.30;;
10418;SDS011;5256;48.728;9.140;2023-09-08T00:35:37;0.27;;;0.27;;
10418;SDS011;5256;48.728;9.140;2023-09-08T00:38:03;0.30;;;0.30;;
10418;SDS011;5256;48.728;9.140;2023-09-08T00:40:29;0.40;;;0.40;;
10418;SDS011;5256;48.728;9.140;2023-09-08T00:42:54;0.30;;;0.30;;
10418;SDS011;5256;48.728;9.140;2023-09-08T00:45:20;0.30;;;0.30;;
10418;SDS011;5256;48.728;9.140;2023-09-08T00:47:46;0.30;;;0.30;;
10418;SDS011;5256;48.728;9.140;2023-09-08T00:50:11;0.20;;;0.20;;
10418;SDS011;5256;48.728;9.140;2023-09-08T00:52:37;0.20;;;0.20;;
10418;SDS011;5256;48.728;9.140;2023-09-08T00:55:03;0.50;;;0.50;;
10418;SDS011;5256;48.728;9.140;2023-09-08T00:57:29;0.40;;;0.40;;
10418;SDS011;5256;48.728;9.140;2023-09-08T00:59:55;0.50;;;0.50;;
10418;SDS011;5256;48.728;9.140;2023-09-08T01:02:21;0.40;;;0.40;;
10418;SDS011;5256;48.728;9.140;2023-09-08T01:04:47;0.40;;;0.40;;
10418;SDS011;5256;48.728;9.140;2023-09-08T01:07:13;0.30;;;0.30;;
10418;SDS011;5256;48.728;9.140;2023-09-08T01:09:40;0.23;;;0.23;;
10418;SDS011;5256;48.728;9.140;2023-09-08T01:12:06;0.30;;;0.30;;
10418;SDS011;5256;48.728;9.140;2023-09-08T01:14:32;0.30;;;0.30;;
10418;SDS011;5256;48.728;9.140;2023-09-08T01:16:58;0.40;;;0.40;;
10418;SDS011;5256;48.728;9.140;2023-09-08T01:19:23;0.30;;;0.30;;
10418;SDS011;5256;48.728;9.140;2023-09-08T01:27:24;0.30;;;0.30;;
10418;SDS011;5256;48.728;9.140;2023-09-08T01:29:50;0.33;;;0.33;;
10418;SDS011;5256;48.728;9.140;2023-09-08T01:32:18;0.37;;;0.37;;
10418;SDS011;5256;48.728;9.140;2023-09-08T01:34:44;0.23;;;0.23;;
10418;SDS011;5256;48.728;9.140;2023-09-08T01:37:10;0.20;;;0.20;;
10418;SDS011;5256;48.728;9.140;2023-09-08T01:39:35;0.40;;;0.40;;
10418;SDS011;5256;48.728;9.140;2023-09-08T01:42:01;0.40;;;0.40;;
10418;SDS011;5256;48.728;9.140;2023-09-08T01:44:27;0.40;;;0.40;;
10418;SDS011;5256;48.728;9.140;2023-09-08T01:46:52;0.30;;;0.30;;
10418;SDS011;5256;48.728;9.140;2023-09-08T01:49:22;0.20;;;0.20;;
10418;SDS011;5256;48.728;9.140;2023-09-08T01:51:50;0.30;;;0.30;;
10418;SDS011;5256;48.728;9.140;2023-09-08T01:54:16;0.30;;;0.30;;
10418;SDS011;5256;48.728;9.140;2023-09-08T01:56:42;0.30;;;0.30;;
10418;SDS011;5256;48.728;9.140;2023-09-08T01:59:07;0.40;;;0.40;;
10418;SDS011;5256;48.728;9.140;2023-09-08T02:01:33;0.30;;;0.30;;
10418;SDS011;5256;48.728;9.140;2023-09-08T02:03:58;0.30;;;0.30;;
10418;SDS011;5256;48.728;9.140;2023-09-08T02:06:24;0.30;;;0.30;;
10418;SDS011;5256;48.728;9.140;2023-09-08T02:08:49;0.30;;;0.30;;
10418;SDS011;5256;48.728;9.140;2023-09-08T02:11:15;0.30;;;0.30;;
10418;SDS011;5256;48.728;9.140;2023-09-08T02:13:44;0.40;;;0.40;;
10418;SDS011;5256;48.728;9.140;2023-09-08T02:16:16;0.30;;;0.30;;
10418;SDS011;5256;48.728;9.140;2023-09-08T02:18:42;0.30;;;0.30;;
10418;SDS011;5256;48.728;9.140;2023-09-08T02:21:08;0.30;;;0.30;;
10418;SDS011;5256;48.728;9.140;2023-09-08T02:23:34;0.37;;;0.37;;
10418;SDS011;5256;48.728;9.140;2023-09-08T02:25:59;0.40;;;0.40;;
10418;SDS011;5256;48.728;9.140;2023-09-08T02:28:25;0.30;;;0.30;;
10418;SDS011;5256;48.728;9.140;2023-09-08T02:30:51;0.40;;;0.40;;
10418;SDS011;5256;48.728;9.140;2023-09-08T02:33:16;0.37;;;0.37;;
10418;SDS011;5256;48.728;9.140;2023-09-08T02:35:42;0.30;;;0.30;;
10418;SDS011;5256;48.728;9.140;2023-09-08T02:38:08;0.30;;;0.30;;
10418;SDS011;5256;48.728;9.140;2023-09-08T02:40:33;0.40;;;0.40;;
10418;SDS011;5256;48.728;9.140;2023-09-08T02:43:02;0.30;;;0.30;;
10418;SDS011;5256;48.728;9.140;2023-09-08T02:45:28;0.40;;;0.40;;
10418;SDS011;5256;48.728;9.140;2023-09-08T02:47:54;0.50;;;0.50;;
10418;SDS011;5256;48.728;9.140;2023-09-08T02:50:20;0.33;;;0.33;;
10418;SDS011;5256;48.728;9.140;2023-09-08T02:52:46;0.30;;;0.30;;
10418;SDS011;5256;48.728;9.140;2023-09-08T02:55:12;0.30;;;0.30;;
10418;SDS011;5256;48.728;9.140;2023-09-08T02:57:38;0.30;;;0.30;;
10418;SDS011;5256;48.728;9.140;2023-09-08T03:00:04;0.30;;;0.30;;
10418;SDS011;5256;48.728;9.140;2023-09-08T03:02:31;0.37;;;0.37;;
10418;SDS011;5256;48.728;9.140;2023-09-08T03:04:57;0.30;;;0.30;;
10418;SDS011;5256;48.728;9.140;2023-09-08T03:07:22;0.40;;;0.40;;
10418;SDS011;5256;48.728;9.140;2023-09-08T03:09:48;0.30;;;0.30;;
10418;SDS011;5256;48.728;9.140;2023-09-08T03:12:14;0.30;;;0.30;;
10418;SDS011;5256;48.728;9.140;2023-09-08T03:14:39;0.30;;;0.30;;
10418;SDS011;5256;48.728;9.140;2023-09-08T03:17:05;0.30;;;0.30;;
10418;SDS011;5256;48.728;9.140;2023-09-08T03:19:30;0.30;;;0.30;;
10418;SDS011;5256;48.728;9.140;2023-09-08T03:21:56;0.30;;;0.30;;
10418;SDS011;5256;48.728;9.140;2023-09-08T03:24:22;0.33;;;0.33;;
10418;SDS011;5256;48.728;9.140;2023-09-08T03:26:47;0.40;;;0.40;;
10418;SDS011;5256;48.728;9.140;2023-09-08T03:29:13;0.30;;;0.30;;
10418;SDS011;5256;48.728;9.140;2023-09-08T03:31:38;0.30;;;0.30;;
10418;SDS011;5256;48.728;9.140;2023-09-08T03:34:04;0.30;;;0.30;;
10418;SDS011;5256;48.728;9.140;2023-09-08T03:36:30;0.30;;;0.30;;
10418;SDS011;5256;48.728;9.140;2023-09-08T03:38:56;0.30;;;0.30;;
10418;SDS011;5256;48.728;9.140;2023-09-08T03:41:23;0.33;;;0.33;;
10418;SDS011;5256;48.728;9.140;2023-09-08T03:43:48;0.20;;;0.20;;
10418;SDS011;5256;48.728;9.140;2023-09-08T03:46:14;0.30;;;0.30;;
10418;SDS011;5256;48.728;9.140;2023-09-08T03:48:40;0.30;;;0.30;;
10418;SDS011;5256;48.728;9.140;2023-09-08T03:51:05;0.30;;;0.30;;
10418;SDS011;5256;48.728;9.140;2023-09-08T03:53:31;0.30;;;0.30;;
10418;SDS011;5256;48.728;9.140;2023-09-08T03:55:56;0.30;;;0.30;;
10418;SDS011;5256;48.728;9.140;2023-09-08T03:58:22;0.30;;;0.30;;
10418;SDS011;5256;48.728;9.140;2023-09-08T04:00:47;0.27;;;0.27;;
10418;SDS011;5256;48.728;9.140;2023-09-08T04:03:13;0.40;;;0.40;;
10418;SDS011;5256;48.728;9.140;2023-09-08T04:05:39;0.30;;;0.30;;
10418;SDS011;5256;48.728;9.140;2023-09-08T04:08:04;0.40;;;0.40;;
10418;SDS011;5256;48.728;9.140;2023-09-08T04:10:30;0.20;;;0.20;;
10418;SDS011;5256;48.728;9.140;2023-09-08T04:12:56;0.37;;;0.37;;
10418;SDS011;5256;48.728;9.140;2023-09-08T04:15:21;0.30;;;0.30;;
10418;SDS011;5256;48.728;9.140;2023-09-08T04:17:47;0.30;;;0.30;;
10418;SDS011;5256;48.728;9.140;2023-09-08T04:20:13;0.43;;;0.43;;
10418;SDS011;5256;48.728;9.140;2023-09-08T04:22:40;0.30;;;0.30;;
10418;SDS011;5256;48.728;9.140;2023-09-08T04:25:06;0.30;;;0.30;;
10418;SDS011;5256;48.728;9.140;2023-09-08T04:27:31;0.30;;;0.30;;
10418;SDS011;5256;48.728;9.140;2023-09-08T04:30:03;0.40;;;0.40;;
10418;SDS011;5256;48.728;9.140;2023-09-08T04:32:30;0.30;;;0.30;;
10418;SDS011;5256;48.728;9.140;2023-09-08T04:34:55;0.50;;;0.50;;
10418;SDS011;5256;48.728;9.140;2023-09-08T04:37:21;0.40;;;0.40;;
10418;SDS011;5256;48.728;9.140;2023-09-08T04:39:46;0.30;;;0.30;;
10418;SDS011;5256;48.728;9.140;2023-09-08T04:42:12;0.30;;;0.30;;
10418;SDS011;5256;48.728;9.140;2023-09-08T04:44:38;0.30;;;0.30;;
10418;SDS011;5256;48.728;9.140;2023-09-08T04:47:04;0.30;;;0.30;;
10418;SDS011;5256;48.728;9.140;2023-09-08T04:49:30;0.30;;;0.30;;
10418;SDS011;5256;48.728;9.140;2023-09-08T04:51:55;0.40;;;0.40;;
10418;SDS011;5256;48.728;9.140;2023-09-08T04:54:21;0.30;;;0.30;;
10418;SDS011;5256;48.728;9.140;2023-09-08T04:56:49;0.30;;;0.30;;
10418;SDS011;5256;48.728;9.140;2023-09-08T04:59:15;0.30;;;0.30;;
10418;SDS011;5256;48.728;9.140;2023-09-08T05:01:41;0.30;;;0.30;;
10418;SDS011;5256;48.728;9.140;2023-09-08T05:04:08;0.33;;;0.33;;
10418;SDS011;5256;48.728;9.140;2023-09-08T05:06:34;0.30;;;0.30;;
10418;SDS011;5256;48.728;9.140;2023-09-08T05:08:59;0.30;;;0.30;;
10418;SDS011;5256;48.728;9.140;2023-09-08T05:11:25;0.30;;;0.30;;
10418;SDS011;5256;48.728;9.140;2023-09-08T05:13:51;0.30;;;0.30;;
10418;SDS011;5256;48.728;9.140;2023-09-08T05:16:16;0.30;;;0.30;;
10418;SDS011;5256;48.728;9.140;2023-09-08T05:18:43;0.30;;;0.30;;
10418;SDS011;5256;48.728;9.140;2023-09-08T05:21:09;0.40;;;0.40;;
10418;SDS011;5256;48.728;9.140;2023-09-08T05:23:35;0.30;;;0.30;;
10418;SDS011;5256;48.728;9.140;2023-09-08T05:26:00;0.40;;;0.40;;
10418;SDS011;5256;48.728;9.140;2023-09-08T05:28:26;0.30;;;0.30;;
10418;SDS011;5256;48.728;9.140;2023-09-08T05:30:51;0.30;;;0.30;;
10418;SDS011;5256;48.728;9.140;2023-09-08T05:33:17;0.40;;;0.40;;
10418;SDS011;5256;48.728;9.140;2023-09-08T05:35:44;0.30;;;0.30;;
10418;SDS011;5256;48.728;9.140;2023-09-08T05:38:10;0.40;;;0.40;;
10418;SDS011;5256;48.728;9.140;2023-09-08T05:40:36;0.30;;;0.30;;
10418;SDS011;5256;48.728;9.140;2023-09-08T05:43:02;0.40;;;0.40;;
10418;SDS011;5256;48.728;9.140;2023-09-08T05:45:28;0.37;;;0.37;;
10418;SDS011;5256;48.728;9.140;2023-09-08T05:47:56;0.30;;;0.30;;
10418;SDS011;5256;48.728;9.140;2023-09-08T05:50:21;0.50;;;0.50;;
10418;SDS011;5256;48.728;9.140;2023-09-08T05:52:47;0.40;;;0.40;;
10418;SDS011;5256;48.728;9.140;2023-09-08T05:55:12;0.30;;;0.30;;
10418;SDS011;5256;48.728;9.140;2023-09-08T05:57:38;0.30;;;0.30;;
10418;SDS011;5256;48.728;9.140;2023-09-08T06:00:03;0.30;;;0.30;;
10418;SDS011;5256;48.728;9.140;2023-09-08T06:02:29;0.30;;;0.30;;
10418;SDS011;5256;48.728;9.140;2023-09-08T06:04:55;0.20;;;0.20;;
10418;SDS011;5256;48.728;9.140;2023-09-08T06:07:21;0.30;;;0.30;;
10418;SDS011;5256;48.728;9.140;2023-09-08T06:09:47;0.20;;;0.20;;
10418;SDS011;5256;48.728;9.140;2023-09-08T06:12:12;0.20;;;0.20;;
10418;SDS011;5256;48.728;9.140;2023-09-08T06:14:38;0.20;;;0.20;;
10418;SDS011;5256;48.728;9.140;2023-09-08T06:17:03;0.10;;;0.10;;
10418;SDS011;5256;48.728;9.140;2023-09-08T06:19:29;0.20;;;0.20;;
10418;SDS011;5256;48.728;9.140;2023-09-08T06:21:54;0.30;;;0.30;;
10418;SDS011;5256;48.728;9.140;2023-09-08T06:24:20;0.20;;;0.20;;
10418;SDS011;5256;48.728;9.140;2023-09-08T06:26:45;0.30;;;0.30;;
10418;SDS011;5256;48.728;9.140;2023-09-08T06:29:11;0.30;;;0.30;;
10418;SDS011;5256;48.728;9.140;2023-09-08T06:31:37;0.40;;;0.40;;
10418;SDS011;5256;48.728;9.140;2023-09-08T06:34:02;0.20;;;0.20;;
10418;SDS011;5256;48.728;9.140;2023-09-08T06:36:28;0.30;;;0.30;;
10418;SDS011;5256;48.728;9.140;2023-09-08T06:38:53;0.30;;;0.30;;
10418;SDS011;5256;48.728;9.140;2023-09-08T06:41:19;0.20;;;0.20;;
10418;SDS011;5256;48.728;9.140;2023-09-08T06:43:44;0.20;;;0.20;;
10418;SDS011;5256;48.728;9.140;2023-09-08T06:46:10;0.27;;;0.27;;
10418;SDS011;5256;48.728;9.140;2023-09-08T06:48:35;0.20;;;0.20;;
10418;SDS011;5256;48.728;9.140;2023-09-08T06:51:02;0.13;;;0.13;;
10418;SDS011;5256;48.728;9.140;2023-09-08T06:53:27;0.20;;;0.20;;
10418;SDS011;5256;48.728;9.140;2023-09-08T06:55:53;0.30;;;0.30;;
10418;SDS011;5256;48.728;9.140;2023-09-08T06:58:18;0.20;;;0.20;;
10418;SDS011;5256;48.728;9.140;2023-09-08T07:00:44;0.20;;;0.20;;
10418;SDS011;5256;48.728;9.140;2023-09-08T07:03:10;0.20;;;0.20;;
10418;SDS011;5256;48.728;9.140;2023-09-08T07:05:35;0.20;;;0.20;;
10418;SDS011;5256;48.728;9.140;2023-09-08T07:08:01;0.20;;;0.20;;
10418;SDS011;5256;48.728;9.140;2023-09-08T07:10:26;0.20;;;0.20;;
10418;SDS011;5256;48.728;9.140;2023-09-08T07:12:52;0.10;;;0.10;;
10418;SDS011;5256;48.728;9.140;2023-09-08T07:15:18;0.20;;;0.20;;
10418;SDS011;5256;48.728;9.140;2023-09-08T07:17:43;0.13;;;0.13;;
10418;SDS011;5256;48.728;9.140;2023-09-08T07:20:09;0.10;;;0.10;;
10418;SDS011;5256;48.728;9.140;2023-09-08T07:22:35;0.10;;;0.10;;
10418;SDS011;5256;48.728;9.140;2023-09-08T07:25:00;0.10;;;0.10;;
10418;SDS011;5256;48.728;9.140;2023-09-08T07:27:26;0.10;;;0.10;;
10418;SDS011;5256;48.728;9.140;2023-09-08T07:29:51;0.10;;;0.10;;
10418;SDS011;5256;48.728;9.140;2023-09-08T07:32:17;0.10;;;0.10;;
10418;SDS011;5256;48.728;9.140;2023-09-08T07:34:43;0.10;;;0.10;;
10418;SDS011;5256;48.728;9.140;2023-09-08T07:37:09;0.10;;;0.10;;
10418;SDS011;5256;48.728;9.140;2023-09-08T07:39:35;0.10;;;0.10;;
10418;SDS011;5256;48.728;9.140;2023-09-08T07:42:00;0.10;;;0.10;;
10418;SDS011;5256;48.728;9.140;2023-09-08T07:44:27;0.10;;;0.10;;
10418;SDS011;5256;48.728;9.140;2023-09-08T07:46:52;0.10;;;0.10;;
10418;SDS011;5256;48.728;9.140;2023-09-08T07:49:20;0.10;;;0.10;;
10418;SDS011;5256;48.728;9.140;2023-09-08T07:51:45;0.10;;;0.10;;
10418;SDS011;5256;48.728;9.140;2023-09-08T07:54:12;0.10;;;0.10;;
10418;SDS011;5256;48.728;9.140;2023-09-08T07:56:38;0.10;;;0.10;;
10418;SDS011;5256;48.728;9.140;2023-09-08T07:59:05;0.10;;;0.10;;
10418;SDS011;5256;48.728;9.140;2023-09-08T08:01:31;0.10;;;0.10;;
10418;SDS011;5256;48.728;9.140;2023-09-08T08:03:57;0.10;;;0.10;;
10418;SDS011;5256;48.728;9.140;2023-09-08T08:06:23;0.10;;;0.10;;
10418;SDS011;5256;48.728;9.140;2023-09-08T08:08:49;0.10;;;0.10;;
10418;SDS011;5256;48.728;9.140;2023-09-08T08:11:15;0.10;;;0.10;;
10418;SDS011;5256;48.728;9.140;2023-09-08T08:13:45;0.10;;;0.10;;
10418;SDS011;5256;48.728;9.140;2023-09-08T08:16:11;0.10;;;0.10;;
10418;SDS011;5256;48.728;9.140;2023-09-08T08:18:36;0.10;;;0.10;;
10418;SDS011;5256;48.728;9.140;2023-09-08T08:21:02;0.10;;;0.10;;
10418;SDS011;5256;48.728;9.140;2023-09-08T08:23:28;0.10;;;0.10;;
10418;SDS011;5256;48.728;9.140;2023-09-08T08:25:55;0.10;;;0.10;;
10418;SDS011;5256;48.728;9.140;2023-09-08T08:28:21;0.10;;;0.10;;
10418;SDS011;5256;48.728;9.140;2023-09-08T08:30:46;0.10;;;0.10;;
10418;SDS011;5256;48.728;9.140;2023-09-08T08:33:12;0.10;;;0.10;;
10418;SDS011;5256;48.728;9.140;2023-09-08T08:35:38;0.10;;;0.10;;
10418;SDS011;5256;48.728;9.140;2023-09-08T08:38:04;0.10;;;0.10;;
10418;SDS011;5256;48.728;9.140;2023-09-08T08:40:30;0.10;;;0.10;;
10418;SDS011;5256;48.728;9.140;2023-09-08T08:42:56;0.10;;;0.10;;
10418;SDS011;5256;48.728;9.140;2023-09-08T08:45:23;0.10;;;0.10;;
10418;SDS011;5256;48.728;9.140;2023-09-08T08:47:50;0.10;;;0.10;;
10418;SDS011;5256;48.728;9.140;2023-09-08T08:50:17;0.10;;;0.10;;
10418;SDS011;5256;48.728;9.140;2023-09-08T08:52:43;0.10;;;0.10;;
10418;SDS011;5256;48.728;9.140;2023-09-08T08:55:09;0.10;;;0.10;;
10418;SDS011;5256;48.728;9.140;2023-09-08T08:57:38;0.10;;;0.10;;
10418;SDS011;5256;48.728;9.140;2023-09-08T09:00:11;0.10;;;0.10;;
10418;SDS011;5256;48.728;9.140;2023-09-08T09:02:41;0.10;;;0.10;;
10418;SDS011;5256;48.728;9.140;2023-09-08T09:05:10;0.10;;;0.10;;
10418;SDS011;5256;48.728;9.140;2023-09-08T09:07:42;0.10;;;0.10;;
10418;SDS011;5256;48.728;9.140;2023-09-08T09:10:09;0.10;;;0.10;;
10418;SDS011;5256;48.728;9.140;2023-09-08T09:12:36;0.10;;;0.10;;
10418;SDS011;5256;48.728;9.140;2023-09-08T09:15:03;0.10;;;0.10;;
10418;SDS011;5256;48.728;9.140;2023-09-08T09:17:33;0.10;;;0.10;;
10418;SDS011;5256;48.728;9.140;2023-09-08T09:22:58;0.10;;;0.10;;
10418;SDS011;5256;48.728;9.140;2023-09-08T09:25:24;0.10;;;0.10;;
10418;SDS011;5256;48.728;9.140;2023-09-08T09:27:56;0.00;;;0.00;;
10418;SDS011;5256;48.728;9.140;2023-09-08T09:30:25;0.10;;;0.10;;
10418;SDS011;5256;48.728;9.140;2023-09-08T09:32:59;0.10;;;0.10;;
10418;SDS011;5256;48.728;9.140;2023-09-08T09:35:45;0.10;;;0.10;;
10418;SDS011;5256;48.728;9.140;2023-09-08T09:38:15;0.10;;;0.10;;
10418;SDS011;5256;48.728;9.140;2023-09-08T09:40:43;0.10;;;0.10;;
10418;SDS011;5256;48.728;9.140;2023-09-08T09:43:09;0.10;;;0.10;;
10418;SDS011;5256;48.728;9.140;2023-09-08T09:45:36;0.10;;;0.10;;
10418;SDS011;5256;48.728;9.140;2023-09-08T09:48:03;0.10;;;0.10;;
10418;SDS011;5256;48.728;9.140;2023-09-08T09:50:30;0.10;;;0.10;;
10418;SDS011;5256;48.728;9.140;2023-09-08T09:53:00;0.10;;;0.10;;
10418;SDS011;5256;48.728;9.140;2023-09-08T09:55:27;0.10;;;0.10;;
10418;SDS011;5256;48.728;9.140;2023-09-08T09:57:57;0.10;;;0.10;;
10418;SDS011;5256;48.728;9.140;2023-09-08T10:00:29;0.10;;;0.10;;
10418;SDS011;5256;48.728;9.140;2023-09-08T10:02:56;0.10;;;0.10;;
10418;SDS011;5256;48.728;9.140;2023-09-08T10:05:22;0.10;;;0.10;;
10418;SDS011;5256;48.728;9.140;2023-09-08T10:07:49;0.10;;;0.10;;
10418;SDS011;5256;48.728;9.140;2023-09-08T10:10:15;0.10;;;0.10;;
10418;SDS011;5256;48.728;9.140;2023-09-08T10:12:44;0.10;;;0.10;;
10418;SDS011;5256;48.728;9.140;2023-09-08T10:15:11;0.10;;;0.10;;
10418;SDS011;5256;48.728;9.140;2023-09-08T10:17:38;0.10;;;0.10;;
10418;SDS011;5256;48.728;9.140;2023-09-08T10:20:05;0.10;;;0.10;;
10418;SDS011;5256;48.728;9.140;2023-09-08T10:22:37;0.10;;;0.10;;
10418;SDS011;5256;48.728;9.140;2023-09-08T10:25:05;0.10;;;0.10;;
10418;SDS011;5256;48.728;9.140;2023-09-08T10:27:33;0.10;;;0.10;;
10418;SDS011;5256;48.728;9.140;2023-09-08T10:30:00;0.10;;;0.10;;
10418;SDS011;5256;48.728;9.140;2023-09-08T10:32:29;0.10;;;0.10;;
10418;SDS011;5256;48.728;9.140;2023-09-08T10:34:55;0.10;;;0.10;;
10418;SDS011;5256;48.728;9.140;2023-09-08T10:37:23;0.10;;;0.10;;
10418;SDS011;5256;48.728;9.140;2023-09-08T10:39:56;0.10;;;0.10;;
10418;SDS011;5256;48.728;9.140;2023-09-08T10:42:45;0.10;;;0.10;;
10418;SDS011;5256;48.728;9.140;2023-09-08T10:45:14;0.17;;;0.17;;
10418;SDS011;5256;48.728;9.140;2023-09-08T10:50:16;0.10;;;0.10;;
10418;SDS011;5256;48.728;9.140;2023-09-08T10:53:13;0.10;;;0.10;;
10418;SDS011;5256;48.728;9.140;2023-09-08T10:55:42;0.10;;;0.10;;
10418;SDS011;5256;48.728;9.140;2023-09-08T10:58:17;0.10;;;0.10;;
10418;SDS011;5256;48.728;9.140;2023-09-08T11:00:47;0.10;;;0.10;;
10418;SDS011;5256;48.728;9.140;2023-09-08T11:03:25;0.10;;;0.10;;
10418;SDS011;5256;48.728;9.140;2023-09-08T11:05:52;0.20;;;0.20;;
10418;SDS011;5256;48.728;9.140;2023-09-08T11:08:18;0.10;;;0.10;;
10418;SDS011;5256;48.728;9.140;2023-09-08T11:10:44;0.10;;;0.10;;
10418;SDS011;5256;48.728;9.140;2023-09-08T11:13:10;0.10;;;0.10;;
10418;SDS011;5256;48.728;9.140;2023-09-08T11:15:36;0.17;;;0.17;;
10418;SDS011;5256;48.728;9.140;2023-09-08T11:18:05;0.10;;;0.10;;
10418;SDS011;5256;48.728;9.140;2023-09-08T11:20:32;0.10;;;0.10;;
10418;SDS011;5256;48.728;9.140;2023-09-08T11:22:59;0.10;;;0.10;;
10418;SDS011;5256;48.728;9.140;2023-09-08T11:25:24;0.20;;;0.20;;
10418;SDS011;5256;48.728;9.140;2023-09-08T11:27:50;0.10;;;0.10;;
10418;SDS011;5256;48.728;9.140;2023-09-08T11:30:16;0.20;;;0.20;;
10418;SDS011;5256;48.728;9.140;2023-09-08T11:32:42;0.30;;;0.30;;
10418;SDS011;5256;48.728;9.140;2023-09-08T11:35:09;0.20;;;0.20;;
10418;SDS011;5256;48.728;9.140;2023-09-08T11:37:39;0.10;;;0.10;;
10418;SDS011;5256;48.728;9.140;2023-09-08T11:40:06;0.10;;;0.10;;
10418;SDS011;5256;48.728;9.140;2023-09-08T11:42:43;0.10;;;0.10;;
10418;SDS011;5256;48.728;9.140;2023-09-08T11:45:10;0.10;;;0.10;;
10418;SDS011;5256;48.728;9.140;2023-09-08T11:47:40;0.10;;;0.10;;
10418;SDS011;5256;48.728;9.140;2023-09-08T11:50:07;0.10;;;0.10;;
10418;SDS011;5256;48.728;9.140;2023-09-08T11:52:34;0.10;;;0.10;;
10418;SDS011;5256;48.728;9.140;2023-09-08T11:54:59;0.10;;;0.10;;
10418;SDS011;5256;48.728;9.140;2023-09-08T11:57:25;0.10;;;0.10;;
10418;SDS011;5256;48.728;9.140;2023-09-08T11:59:51;0.20;;;0.20;;
10418;SDS011;5256;48.728;9.140;2023-09-08T12:02:17;0.10;;;0.10;;
10418;SDS011;5256;48.728;9.140;2023-09-08T12:04:43;0.10;;;0.10;;
10418;SDS011;5256;48.728;9.140;2023-09-08T12:07:13;0.10;;;0.10;;
10418;SDS011;5256;48.728;9.140;2023-09-08T12:09:40;0.10;;;0.10;;
10418;SDS011;5256;48.728;9.140;2023-09-08T12:12:10;0.10;;;0.10;;
10418;SDS011;5256;48.728;9.140;2023-09-08T12:14:41;0.20;;;0.20;;
10418;SDS011;5256;48.728;9.140;2023-09-08T12:17:07;0.20;;;0.20;;
10418;SDS011;5256;48.728;9.140;2023-09-08T12:19:33;0.10;;;0.10;;
10418;SDS011;5256;48.728;9.140;2023-09-08T12:22:02;0.10;;;0.10;;
10418;SDS011;5256;48.728;9.140;2023-09-08T12:24:48;0.10;;;0.10;;
10418;SDS011;5256;48.728;9.140;2023-09-08T12:27:21;0.10;;;0.10;;
10418;SDS011;5256;48.728;9.140;2023-09-08T12:30:00;0.20;;;0.20;;
10418;SDS011;5256;48.728;9.140;2023-09-08T12:32:28;0.10;;;0.10;;
10418;SDS011;5256;48.728;9.140;2023-09-08T12:34:54;0.10;;;0.10;;
10418;SDS011;5256;48.728;9.140;2023-09-08T12:37:21;0.10;;;0.10;;
10418;SDS011;5256;48.728;9.140;2023-09-08T12:39:52;0.20;;;0.20;;
10418;SDS011;5256;48.728;9.140;2023-09-08T12:42:18;0.10;;;0.10;;
10418;SDS011;5256;48.728;9.140;2023-09-08T12:44:44;0.10;;;0.10;;
10418;SDS011;5256;48.728;9.140;2023-09-08T12:47:11;0.10;;;0.10;;
10418;SDS011;5256;48.728;9.140;2023-09-08T12:49:39;0.10;;;0.10;;
10418;SDS011;5256;48.728;9.140;2023-09-08T12:52:05;0.10;;;0.10;;
10418;SDS011;5256;48.728;9.140;2023-09-08T12:54:31;0.10;;;0.10;;
10418;SDS011;5256;48.728;9.140;2023-09-08T12:56:57;0.20;;;0.20;;
10418;SDS011;5256;48.728;9.140;2023-09-08T12:59:22;0.10;;;0.10;;
10418;SDS011;5256;48.728;9.140;2023-09-08T13:01:48;0.20;;;0.20;;
10418;SDS011;5256;48.728;9.140;2023-09-08T13:04:14;0.10;;;0.10;;
10418;SDS011;5256;48.728;9.140;2023-09-08T13:06:39;0.10;;;0.10;;
10418;SDS011;5256;48.728;9.140;2023-09-08T13:09:05;0.10;;;0.10;;
10418;SDS011;5256;48.728;9.140;2023-09-08T13:11:32;0.10;;;0.10;;
10418;SDS011;5256;48.728;9.140;2023-09-08T13:13:57;0.13;;;0.13;;
10418;SDS011;5256;48.728;9.140;2023-09-08T13:16:23;0.10;;;0.10;;
10418;SDS011;5256;48.728;9.140;2023-09-08T13:18:49;0.10;;;0.10;;
10418;SDS011;5256;48.728;9.140;2023-09-08T13:21:14;0.10;;;0.10;;
10418;SDS011;5256;48.728;9.140;2023-09-08T13:23:40;0.10;;;0.10;;
10418;SDS011;5256;48.728;9.140;2023-09-08T13:26:05;0.10;;;0.10;;
10418;SDS011;5256;48.728;9.140;2023-09-08T13:28:31;0.10;;;0.10;;
10418;SDS011;5256;48.728;9.140;2023-09-08T13:30:56;0.20;;;0.20;;
10418;SDS011;5256;48.728;9.140;2023-09-08T13:33:22;0.20;;;0.20;;
10418;SDS011;5256;48.728;9.140;2023-09-08T13:35:47;0.10;;;0.10;;
10418;SDS011;5256;48.728;9.140;2023-09-08T13:38:13;0.10;;;0.10;;
10418;SDS011;5256;48.728;9.140;2023-09-08T13:40:38;0.10;;;0.10;;
10418;SDS011;5256;48.728;9.140;2023-09-08T13:43:06;0.10;;;0.10;;
10418;SDS011;5256;48.728;9.140;2023-09-08T13:45:31;0.10;;;0.10;;
10418;SDS011;5256;48.728;9.140;2023-09-08T13:47:57;0.13;;;0.13;;
10418;SDS011;5256;48.728;9.140;2023-09-08T13:50:22;0.20;;;0.20;;
10418;SDS011;5256;48.728;9.140;2023-09-08T13:52:48;0.10;;;0.10;;
10418;SDS011;5256;48.728;9.140;2023-09-08T13:55:14;0.10;;;0.10;;
10418;SDS011;5256;48.728;9.140;2023-09-08T13:57:40;0.10;;;0.10;;
10418;SDS011;5256;48.728;9.140;2023-09-08T14:00:05;0.10;;;0.10;;
10418;SDS011;5256;48.728;9.140;2023-09-08T14:02:33;0.10;;;0.10;;
10418;SDS011;5256;48.728;9.140;2023-09-08T14:04:59;0.20;;;0.20;;
10418;SDS011;5256;48.728;9.140;2023-09-08T14:07:25;0.10;;;0.10;;
10418;SDS011;5256;48.728;9.140;2023-09-08T14:09:50;0.10;;;0.10;;
10418;SDS011;5256;48.728;9.140;2023-09-08T14:12:16;0.10;;;0.10;;
10418;SDS011;5256;48.728;9.140;2023-09-08T14:14:41;0.10;;;0.10;;
10418;SDS011;5256;48.728;9.140;2023-09-08T14:17:07;0.10;;;0.10;;
10418;SDS011;5256;48.728;9.140;2023-09-08T14:19:32;0.10;;;0.10;;
10418;SDS011;5256;48.728;9.140;2023-09-08T14:21:58;0.10;;;0.10;;
10418;SDS011;5256;48.728;9.140;2023-09-08T14:24:23;0.10;;;0.10;;
10418;SDS011;5256;48.728;9.140;2023-09-08T14:26:49;0.10;;;0.10;;
10418;SDS011;5256;48.728;9.140;2023-09-08T14:29:16;0.10;;;0.10;;
10418;SDS011;5256;48.728;9.140;2023-09-08T14:31:42;0.10;;;0.10;;
10418;SDS011;5256;48.728;9.140;2023-09-08T14:34:08;0.10;;;0.10;;
10418;SDS011;5256;48.728;9.140;2023-09-08T14:36:34;0.10;;;0.10;;
10418;SDS011;5256;48.728;9.140;2023-09-08T14:38:59;0.10;;;0.10;;
10418;SDS011;5256;48.728;9.140;2023-09-08T14:41:25;0.20;;;0.20;;
10418;SDS011;5256;48.728;9.140;2023-09-08T14:43:51;0.20;;;0.20;;
10418;SDS011;5256;48.728;9.140;2023-09-08T14:46:16;0.10;;;0.10;;
10418;SDS011;5256;48.728;9.140;2023-09-08T14:48:42;0.10;;;0.10;;
10418;SDS011;5256;48.728;9.140;2023-09-08T14:51:08;0.10;;;0.10;;
10418;SDS011;5256;48.728;9.140;2023-09-08T14:53:33;0.10;;;0.10;;
10418;SDS011;5256;48.728;9.140;2023-09-08T14:55:59;0.10;;;0.10;;
10418;SDS011;5256;48.728;9.140;2023-09-08T14:58:25;0.10;;;0.10;;
10418;SDS011;5256;48.728;9.140;2023-09-08T15:00:56;0.10;;;0.10;;
10418;SDS011;5256;48.728;9.140;2023-09-08T15:03:22;0.10;;;0.10;;
10418;SDS011;5256;48.728;9.140;2023-09-08T15:05:48;0.10;;;0.10;;
10418;SDS011;5256;48.728;9.140;2023-09-08T15:08:13;0.10;;;0.10;;